Mackenzie Airport
CYZY : now visible

Airfield :











YOU CAN JOIN US ON...

 
LOGIN :

Register | Disclaimer

   EN    FR    IT 

 









Legend :    VFR   Marginal VFR   IFR   Intensive IFR   Very Intensive IFR
Visi :
Ceiling :
>= 8 km
>= 3000ft
5 to 8 km
1000 to 3000 ft
1500m to 5 km
500 to 1000 ft
800 to 1500m
200 to 500 ft
< 800m
< 200 ft
Symbols :   Thunderstorms  Fog  Heavy snow  Heavy precipitations  Wind > 20 kt






- Airport Elevation : 2264 ft
- IATA code : YZY


CYZY - Mackenzie

CURRENT METAR :
  • 221200Z AUTO 12002KT 9SM OVC130 02/02 A2952 RMK SLP020

EXPIRED METARs :
  • 221100Z AUTO 13004KT 9SM FEW140 BKN160 OVC180 01/01 A2954 RMK SLP027
  • 221040Z AUTO VRB03KT 6SM BR BKN150 01/01 A2955 RMK SLP035
  • 221000Z AUTO 13003KT 3SM BR BKN130 OVC160 02/02 A2955 RMK SLP031
  • 220959Z AUTO 13003KT 3SM BR BKN130 BKN160 02/02 A2955 RMK SLP037
  • 220946Z AUTO 15003KT 2 1/2SM BR BKN130 BKN170 01/01 A2956 RMK VIS VRB 1-3 SLP038
  • 220937Z AUTO 16003KT 150V220 2 1/4SM BR FEW140 01/01 A2955 RMK VIS VRB 1-3 SLP037
  • 220927Z AUTO 21002KT 3SM BR CLR 02/02 A2955 RMK SLP035

Expired Forecast.
CZVR FIR / North America



MET'MAP, your aeronautical weather chart ! - Copyright ORBIFLY December 2007 - Disclaimer

ORBIFLY MET'MAP TEAM :

Programming & Development : Alexandra Zaïnal
Concept & original design : Baudouin d'Aumeries
Assistance for programming : Marc-Olivier Méhu
Technical & hardware support : Manuel Goepfert

Contact : metmap@orbifly.com




SOURCES & CREDITS :

   NOAA       Earth
Advisory